createdAt,value
2018-07-17T00:00:56.372Z,2.60
2018-07-17T00:03:26.383Z,2.70
2018-07-17T00:05:56.173Z,2.50
2018-07-17T00:08:25.619Z,2.70
2018-07-17T00:10:55.382Z,2.53
2018-07-17T00:13:25.088Z,3.00
2018-07-17T00:15:55.232Z,2.60
2018-07-17T00:18:24.622Z,2.80
2018-07-17T00:20:54.392Z,2.67
2018-07-17T00:23:23.588Z,2.80
2018-07-17T00:25:53.552Z,2.33
2018-07-17T00:28:23.250Z,3.00
2018-07-17T00:30:53.240Z,2.90
2018-07-17T00:33:23.296Z,2.90
2018-07-17T00:35:52.731Z,2.57
2018-07-17T00:38:22.818Z,2.83
2018-07-17T00:40:52.515Z,2.93
2018-07-17T00:43:22.321Z,3.30
2018-07-17T00:45:52.043Z,2.50
2018-07-17T00:48:22.121Z,2.80
2018-07-17T00:50:51.564Z,2.60
2018-07-17T00:53:21.336Z,2.77
2018-07-17T00:55:50.862Z,2.90
2018-07-17T00:58:20.650Z,2.70
2018-07-17T01:00:49.440Z,3.20
2018-07-17T01:03:24.073Z,3.10
2018-07-17T01:05:58.621Z,3.20
2018-07-17T01:08:33.161Z,2.90
2018-07-17T01:11:08.228Z,3.07
2018-07-17T01:13:42.814Z,3.13
2018-07-17T01:16:12.882Z,2.73
2018-07-17T01:18:42.903Z,3.17
2018-07-17T01:21:12.651Z,3.00
2018-07-17T01:23:42.411Z,3.10
2018-07-17T01:26:12.096Z,3.13
2018-07-17T01:28:42.076Z,2.97
2018-07-17T01:31:12.122Z,3.13
2018-07-17T01:33:42.375Z,3.00
2018-07-17T01:36:12.079Z,2.90
2018-07-17T01:38:41.896Z,3.13
2018-07-17T01:41:11.351Z,2.80
2018-07-17T01:43:41.663Z,3.00
2018-07-17T01:46:11.927Z,2.63
2018-07-17T01:48:41.960Z,2.97
2018-07-17T01:51:11.739Z,3.23
2018-07-17T01:53:41.720Z,2.77
2018-07-17T01:56:11.866Z,3.10
2018-07-17T01:58:41.853Z,3.23
2018-07-17T02:01:11.531Z,2.87
2018-07-17T02:03:41.246Z,3.10
2018-07-17T02:06:11.244Z,3.30
2018-07-17T02:08:41.008Z,3.00
2018-07-17T02:11:10.795Z,2.80
2018-07-17T02:13:40.264Z,2.67
2018-07-17T02:16:09.667Z,3.17
2018-07-17T02:18:38.844Z,3.27
2018-07-17T02:21:08.577Z,3.17
2018-07-17T02:23:38.387Z,2.70
2018-07-17T02:26:08.078Z,2.97
2018-07-17T02:28:38.335Z,2.90
2018-07-17T02:31:08.595Z,2.90
2018-07-17T02:33:38.286Z,3.27
2018-07-17T02:36:08.411Z,3.17
2018-07-17T02:38:38.138Z,3.20
2018-07-17T02:41:08.008Z,3.47
2018-07-17T02:43:37.711Z,2.80
2018-07-17T02:46:08.042Z,3.30
2018-07-17T02:48:38.211Z,3.10
2018-07-17T02:51:08.659Z,3.43
2018-07-17T02:53:38.092Z,3.60
2018-07-17T02:56:07.560Z,3.23
2018-07-17T02:58:37.259Z,2.87
2018-07-17T03:01:06.832Z,3.00
2018-07-17T03:03:36.546Z,3.33
2018-07-17T03:06:06.809Z,3.30
2018-07-17T03:08:35.997Z,3.20
2018-07-17T03:11:05.461Z,3.07
2018-07-17T03:13:35.545Z,3.07
2018-07-17T03:16:05.792Z,2.90
2018-07-17T03:18:35.218Z,2.90
2018-07-17T03:21:05.207Z,3.17
2018-07-17T03:23:35.229Z,3.10
2018-07-17T03:26:05.544Z,3.00
2018-07-17T03:28:34.978Z,2.80
2018-07-17T03:31:04.440Z,3.10
2018-07-17T03:33:34.253Z,3.13
2018-07-17T03:36:04.356Z,2.80
2018-07-17T03:38:33.817Z,2.80
2018-07-17T03:41:03.293Z,3.03
2018-07-17T03:43:32.719Z,3.20
2018-07-17T03:46:02.725Z,3.00
2018-07-17T03:48:32.411Z,2.93
2018-07-17T03:51:02.408Z,2.70
2018-07-17T03:53:32.176Z,3.20
2018-07-17T03:56:02.475Z,3.20
2018-07-17T03:58:32.143Z,3.17
2018-07-17T04:01:01.616Z,3.20
2018-07-17T04:03:31.026Z,3.47
2018-07-17T04:06:00.471Z,3.37
2018-07-17T04:08:30.419Z,3.30
2018-07-17T04:11:00.422Z,3.50
2018-07-17T04:13:29.954Z,3.37
2018-07-17T04:15:59.574Z,3.03
2018-07-17T04:18:29.263Z,3.93
2018-07-17T04:20:59.000Z,4.23
2018-07-17T04:23:28.436Z,3.30
2018-07-17T04:25:58.460Z,3.67
2018-07-17T04:28:27.888Z,3.17
2018-07-17T04:30:57.886Z,3.47
2018-07-17T04:33:27.558Z,3.97
2018-07-17T04:35:57.662Z,3.57
2018-07-17T04:38:27.641Z,3.97
2018-07-17T04:40:57.832Z,3.50
2018-07-17T04:43:27.883Z,3.30
2018-07-17T04:45:57.667Z,3.30
2018-07-17T04:48:27.363Z,3.43
2018-07-17T04:50:57.077Z,3.90
2018-07-17T04:53:27.124Z,4.20
2018-07-17T04:55:56.862Z,3.70
2018-07-17T04:58:26.320Z,3.97
2018-07-17T05:00:55.752Z,4.50
2018-07-17T05:03:25.472Z,3.40
2018-07-17T05:05:55.219Z,3.70
2018-07-17T05:08:25.012Z,4.20
2018-07-17T05:10:54.780Z,4.67
2018-07-17T05:13:24.822Z,4.17
2018-07-17T05:15:54.771Z,4.30
2018-07-17T05:18:24.563Z,4.10
2018-07-17T05:20:54.231Z,4.70
2018-07-17T05:23:24.012Z,3.60
2018-07-17T05:25:53.752Z,3.90
2018-07-17T05:28:23.736Z,4.10
2018-07-17T05:30:53.900Z,4.30
2018-07-17T05:33:23.064Z,4.07
2018-07-17T05:35:53.469Z,3.90
2018-07-17T05:38:23.169Z,4.10
2018-07-17T05:40:52.918Z,4.10
2018-07-17T05:43:22.970Z,3.90
2018-07-17T05:45:52.403Z,3.93
2018-07-17T05:48:22.383Z,3.97
2018-07-17T05:50:52.352Z,3.70
2018-07-17T05:53:21.812Z,3.90
2018-07-17T05:55:51.778Z,3.97
2018-07-17T05:58:21.240Z,3.50
2018-07-17T06:00:51.268Z,3.97
2018-07-17T06:03:20.980Z,3.80
2018-07-17T06:05:51.475Z,4.10
2018-07-17T06:08:21.732Z,3.63
2018-07-17T06:10:51.432Z,3.90
2018-07-17T06:13:20.917Z,3.87
2018-07-17T06:15:50.391Z,3.80
2018-07-17T06:18:20.159Z,3.57
2018-07-17T06:20:49.889Z,3.50
2018-07-17T06:23:19.626Z,3.63
2018-07-17T06:25:49.188Z,3.60
2018-07-17T06:28:18.983Z,3.90
2018-07-17T06:30:49.001Z,3.20
2018-07-17T06:33:19.092Z,3.67
2018-07-17T06:35:48.865Z,3.23
2018-07-17T06:38:18.843Z,3.10
2018-07-17T06:40:48.595Z,3.60
2018-07-17T06:43:17.765Z,3.40
2018-07-17T06:45:47.457Z,3.47
2018-07-17T06:48:16.931Z,3.30
2018-07-17T06:50:47.006Z,3.07
2018-07-17T06:53:16.924Z,3.03
2018-07-17T06:55:46.346Z,3.00
2018-07-17T06:58:15.518Z,2.77
2018-07-17T07:00:45.202Z,2.90
2018-07-17T07:03:14.715Z,2.83
2018-07-17T07:05:44.171Z,3.30
2018-07-17T07:08:13.892Z,2.90
2018-07-17T07:10:43.353Z,3.23
2018-07-17T07:13:12.818Z,2.90
2018-07-17T07:15:42.582Z,2.87
2018-07-17T07:18:14.711Z,3.00
2018-07-17T07:20:44.334Z,3.00
2018-07-17T07:23:14.191Z,2.90
2018-07-17T07:25:44.941Z,2.90
2018-07-17T07:28:15.205Z,2.63
2018-07-17T07:30:45.285Z,2.90
2018-07-17T07:33:15.114Z,3.03
2018-07-17T07:35:45.329Z,3.37
2018-07-17T07:38:15.255Z,3.33
2018-07-17T07:40:47.870Z,2.90
2018-07-17T07:43:19.784Z,2.37
2018-07-17T07:45:49.885Z,2.63
2018-07-17T07:48:20.401Z,3.07
2018-07-17T07:50:51.510Z,2.90
2018-07-17T07:53:21.123Z,2.90
2018-07-17T07:55:51.011Z,3.10
2018-07-17T07:58:21.397Z,2.60
2018-07-17T08:00:53.218Z,3.10
2018-07-17T08:03:23.583Z,2.98
2018-07-17T08:05:53.604Z,3.00
2018-07-17T08:08:24.096Z,2.90
2018-07-17T08:10:54.343Z,3.58
2018-07-17T08:13:25.178Z,3.25
2018-07-17T08:15:55.223Z,3.08
2018-07-17T08:18:25.212Z,3.02
2018-07-17T08:20:55.224Z,3.22
2018-07-17T08:23:25.483Z,2.87
2018-07-17T08:25:55.871Z,2.65
2018-07-17T08:28:25.860Z,2.55
2018-07-17T08:30:56.199Z,2.62
2018-07-17T08:33:26.673Z,2.75
2018-07-17T08:35:56.946Z,2.37
2018-07-17T08:38:26.932Z,2.87
2018-07-17T08:40:58.066Z,3.05
2018-07-17T08:43:28.167Z,3.25
2018-07-17T08:45:58.761Z,3.12
2018-07-17T08:48:29.058Z,3.02
2018-07-17T08:50:59.306Z,3.00
2018-07-17T08:53:29.286Z,2.47
2018-07-17T08:55:59.304Z,2.50
2018-07-17T08:58:29.313Z,2.65
2018-07-17T09:00:59.339Z,2.65
2018-07-17T09:03:29.623Z,2.47
2018-07-17T09:06:00.295Z,2.33
2018-07-17T09:08:30.372Z,2.50
2018-07-17T09:11:00.765Z,2.42
2018-07-17T09:13:31.027Z,2.02
2018-07-17T09:16:01.692Z,2.65
2018-07-17T09:18:32.248Z,2.58
2018-07-17T09:21:02.592Z,2.55
2018-07-17T09:23:33.097Z,2.90
2018-07-17T09:26:03.115Z,2.50
2018-07-17T09:28:33.599Z,2.67
2018-07-17T09:31:04.146Z,2.77
2018-07-17T09:33:34.412Z,2.95
2018-07-17T09:36:04.625Z,3.12
2018-07-17T09:38:34.784Z,2.42
2018-07-17T09:41:04.820Z,2.45
2018-07-17T09:43:35.088Z,2.58
2018-07-17T09:46:05.810Z,2.27
2018-07-17T09:48:35.727Z,2.40
2018-07-17T09:51:05.462Z,2.45
2018-07-17T09:53:35.689Z,2.40
2018-07-17T09:56:05.839Z,2.20
2018-07-17T09:58:35.826Z,2.10
2018-07-17T10:01:11.057Z,2.65
2018-07-17T10:03:41.787Z,2.40
2018-07-17T10:06:12.591Z,2.40
2018-07-17T10:08:42.752Z,2.12
2018-07-17T10:11:13.431Z,1.98
2018-07-17T10:13:43.724Z,1.92
2018-07-17T10:16:14.448Z,2.50
2018-07-17T10:18:45.054Z,1.98
2018-07-17T10:21:15.084Z,2.12
2018-07-17T10:23:45.359Z,2.40
2018-07-17T10:26:15.676Z,2.10
2018-07-17T10:28:46.208Z,2.02
2018-07-17T10:31:16.232Z,1.92
2018-07-17T10:33:46.492Z,1.82
2018-07-17T10:36:17.172Z,2.00
2018-07-17T10:38:50.617Z,2.00
2018-07-17T10:41:21.183Z,1.80
2018-07-17T10:43:51.179Z,1.90
2018-07-17T10:46:21.744Z,2.00
2018-07-17T10:48:52.021Z,2.00
2018-07-17T10:51:22.288Z,1.80
2018-07-17T10:53:52.540Z,2.20
2018-07-17T10:56:23.225Z,1.90
2018-07-17T10:58:53.506Z,2.10
2018-07-17T11:01:23.520Z,1.82
2018-07-17T11:03:53.499Z,2.02
2018-07-17T11:06:23.519Z,1.85
2018-07-17T11:08:53.214Z,2.27
2018-07-17T11:11:23.252Z,2.00
2018-07-17T11:13:53.566Z,2.08
2018-07-17T11:16:23.880Z,2.25
2018-07-17T11:18:54.264Z,2.00
2018-07-17T11:21:24.317Z,1.98
2018-07-17T11:23:54.367Z,2.22
2018-07-17T11:26:24.397Z,1.92
2018-07-17T11:28:55.020Z,1.90
2018-07-17T11:31:25.288Z,1.57
2018-07-17T11:33:55.564Z,1.98
2018-07-17T11:36:25.592Z,1.45
2018-07-17T11:38:56.207Z,1.70
2018-07-17T11:41:26.596Z,1.50
2018-07-17T11:43:57.331Z,1.50
2018-07-17T11:46:27.959Z,1.20
2018-07-17T11:48:58.486Z,1.47
2018-07-17T11:51:28.526Z,1.47
2018-07-17T11:53:58.763Z,1.40
2018-07-17T11:56:28.791Z,1.45
2018-07-17T11:58:59.199Z,1.57
2018-07-17T12:01:29.773Z,1.45
2018-07-17T12:04:00.334Z,1.55
2018-07-17T12:06:30.025Z,1.70
2018-07-17T12:09:00.053Z,1.80
2018-07-17T12:11:30.374Z,1.37
2018-07-17T12:14:00.389Z,1.62
2018-07-17T12:16:30.627Z,1.42
2018-07-17T12:19:00.937Z,1.32
2018-07-17T12:21:31.193Z,1.40
2018-07-17T12:24:01.474Z,1.50
2018-07-17T12:26:32.023Z,1.30
2018-07-17T12:29:01.736Z,1.25
2018-07-17T12:31:31.731Z,1.42
2018-07-17T12:34:01.444Z,1.55
2018-07-17T12:36:31.131Z,2.33
2018-07-17T12:39:01.159Z,2.42
2018-07-17T12:41:31.384Z,2.22
2018-07-17T12:44:01.386Z,1.92
2018-07-17T12:46:31.365Z,2.30
2018-07-17T12:49:02.116Z,1.87
2018-07-17T12:51:32.124Z,2.10
2018-07-17T12:54:03.072Z,2.00
2018-07-17T12:56:33.076Z,1.80
2018-07-17T12:59:03.105Z,1.70
2018-07-17T13:01:33.095Z,1.90
2018-07-17T13:04:03.671Z,1.60
2018-07-17T13:06:33.672Z,1.40
2018-07-17T13:09:04.313Z,1.45
2018-07-17T13:11:34.540Z,1.37
2018-07-17T13:14:05.169Z,1.57
2018-07-17T13:16:34.755Z,1.47
2018-07-17T13:19:04.229Z,1.70
2018-07-17T13:21:33.640Z,1.60
2018-07-17T13:24:03.903Z,1.55
2018-07-17T13:26:34.227Z,1.35
2018-07-17T13:29:04.321Z,1.73
2018-07-17T13:31:34.496Z,1.80
2018-07-17T13:34:03.973Z,1.70
2018-07-17T13:36:33.879Z,1.80
2018-07-17T13:39:04.379Z,1.73
2018-07-17T13:41:33.815Z,1.40
2018-07-17T13:44:03.518Z,1.80
2018-07-17T13:46:33.368Z,1.60
2018-07-17T13:49:02.547Z,1.70
2018-07-17T13:51:31.987Z,1.57
2018-07-17T13:54:01.832Z,1.83
2018-07-17T13:56:31.579Z,1.57
2018-07-17T13:59:01.627Z,1.60
2018-07-17T14:01:32.304Z,1.80
2018-07-17T14:04:01.811Z,1.77
2018-07-17T14:06:31.239Z,1.50
2018-07-17T14:09:01.012Z,1.30
2018-07-17T14:11:31.381Z,1.43
2018-07-17T14:14:00.552Z,1.67
2018-07-17T14:16:30.023Z,1.60
2018-07-17T14:18:59.501Z,1.37
2018-07-17T14:21:29.289Z,1.17
2018-07-17T14:23:59.049Z,1.57
2018-07-17T14:26:29.072Z,1.63
2018-07-17T14:28:58.765Z,1.60
2018-07-17T14:31:29.955Z,1.20
2018-07-17T14:33:59.776Z,1.47
2018-07-17T14:36:29.527Z,1.30
2018-07-17T14:38:59.000Z,1.40
2018-07-17T14:41:28.449Z,1.40
2018-07-17T14:43:57.952Z,1.33
2018-07-17T14:46:27.712Z,1.20
2018-07-17T14:48:57.519Z,1.30
2018-07-17T14:51:26.934Z,1.33
2018-07-17T14:53:56.377Z,1.40
2018-07-17T14:56:25.828Z,1.40
2018-07-17T14:58:55.294Z,1.40
2018-07-17T15:01:24.744Z,1.30
2018-07-17T15:03:54.595Z,1.13
2018-07-17T15:06:24.338Z,1.10
2018-07-17T15:08:54.079Z,1.37
2018-07-17T15:11:23.515Z,1.30
2018-07-17T15:13:53.305Z,1.37
2018-07-17T15:16:23.300Z,1.30
2018-07-17T15:18:52.800Z,1.30
2018-07-17T15:21:22.601Z,1.40
2018-07-17T15:23:52.852Z,2.30
2018-07-17T15:26:22.288Z,1.50
2018-07-17T15:28:52.358Z,1.30
2018-07-17T15:31:21.814Z,1.10
2018-07-17T15:33:51.886Z,1.23
2018-07-17T15:36:21.836Z,1.37
2018-07-17T15:38:51.303Z,1.10
2018-07-17T15:41:21.066Z,1.20
2018-07-17T15:43:50.540Z,1.30
2018-07-17T15:46:20.033Z,1.30
2018-07-17T15:48:50.540Z,1.27
2018-07-17T15:51:20.033Z,1.53
2018-07-17T15:53:49.797Z,1.20
2018-07-17T15:56:19.615Z,1.53
2018-07-17T15:58:49.559Z,1.10
2018-07-17T16:01:19.353Z,1.30
2018-07-17T16:03:48.794Z,1.30
2018-07-17T16:06:18.587Z,1.30
2018-07-17T16:08:48.147Z,1.40
2018-07-17T16:11:17.933Z,1.27
2018-07-17T16:13:47.460Z,1.47
2018-07-17T16:16:17.516Z,1.50
2018-07-17T16:18:47.227Z,1.37
2018-07-17T16:21:17.022Z,1.50
2018-07-17T16:23:46.639Z,1.43
2018-07-17T16:26:16.102Z,1.40
2018-07-17T16:28:46.078Z,1.40
2018-07-17T16:31:15.522Z,1.50
2018-07-17T16:33:44.964Z,1.40
2018-07-17T16:36:14.427Z,1.43
2018-07-17T16:38:43.855Z,1.60
2018-07-17T16:41:13.648Z,1.33
2018-07-17T16:43:43.659Z,1.47
2018-07-17T16:46:13.383Z,1.43
2018-07-17T16:48:42.811Z,1.70
2018-07-17T16:51:12.975Z,1.50
2018-07-17T16:53:42.804Z,1.70
2018-07-17T16:56:12.820Z,1.67
2018-07-17T16:58:43.088Z,1.50
2018-07-17T17:01:12.876Z,1.60
2018-07-17T17:03:43.005Z,1.63
2018-07-17T17:06:13.667Z,1.40
2018-07-17T17:08:43.116Z,1.43
2018-07-17T17:11:12.993Z,1.90
2018-07-17T17:13:42.888Z,1.53
2018-07-17T17:16:12.395Z,1.40
2018-07-17T17:18:42.112Z,1.57
2018-07-17T17:21:11.845Z,1.73
2018-07-17T17:23:41.623Z,1.50
2018-07-17T17:26:11.726Z,1.77
2018-07-17T17:28:41.639Z,1.53
2018-07-17T17:31:11.363Z,2.00
2018-07-17T17:33:41.327Z,1.60
2018-07-17T17:36:11.161Z,1.63
2018-07-17T17:38:41.179Z,1.57
2018-07-17T17:41:11.255Z,1.60
2018-07-17T17:43:40.689Z,1.77
2018-07-17T17:46:10.173Z,1.63
2018-07-17T17:48:40.004Z,1.40
2018-07-17T17:51:09.504Z,1.57
2018-07-17T17:53:38.927Z,1.60
2018-07-17T17:56:08.405Z,1.30
2018-07-17T17:58:38.183Z,1.53
2018-07-17T18:01:08.416Z,1.70
2018-07-17T18:03:38.084Z,1.50
2018-07-17T18:06:07.832Z,1.63
2018-07-17T18:08:37.587Z,1.60
2018-07-17T18:11:07.086Z,1.50
2018-07-17T18:13:36.855Z,1.67
2018-07-17T18:16:06.766Z,1.57
2018-07-17T18:18:36.480Z,1.60
2018-07-17T18:21:06.458Z,1.77
2018-07-17T18:23:36.200Z,1.63
2018-07-17T18:26:05.914Z,1.57
2018-07-17T18:28:35.651Z,1.50
2018-07-17T18:31:05.103Z,1.80
2018-07-17T18:33:34.834Z,1.50
2018-07-17T18:36:04.916Z,1.50
2018-07-17T18:38:34.384Z,1.40
2018-07-17T18:41:04.836Z,1.40
2018-07-17T18:43:35.127Z,1.60
2018-07-17T18:46:04.567Z,1.70
2018-07-17T18:48:34.281Z,1.33
2018-07-17T18:51:04.046Z,1.63
2018-07-17T18:53:34.591Z,1.67
2018-07-17T18:56:04.460Z,1.60
2018-07-17T18:58:34.107Z,1.53
2018-07-17T19:01:04.085Z,1.37
2018-07-17T19:03:33.756Z,1.60
2018-07-17T19:06:03.429Z,1.67
2018-07-17T19:08:33.057Z,1.53
2018-07-17T19:11:02.753Z,1.50
2018-07-17T19:13:32.237Z,1.70
2018-07-17T19:16:01.946Z,1.90
2018-07-17T19:18:31.662Z,1.67
2018-07-17T19:21:01.647Z,1.50
2018-07-17T19:23:31.127Z,1.67
2018-07-17T19:26:00.904Z,1.60
2018-07-17T19:28:32.312Z,1.60
2018-07-17T19:31:01.772Z,1.40
2018-07-17T19:33:31.394Z,1.73
2018-07-17T19:36:01.052Z,1.40
2018-07-17T19:38:30.584Z,1.80
2018-07-17T19:41:01.727Z,1.50
2018-07-17T19:43:30.902Z,1.63
2018-07-17T19:46:00.337Z,1.97
2018-07-17T19:48:30.036Z,1.70
2018-07-17T19:50:59.833Z,1.87
2018-07-17T19:53:29.916Z,2.00
2018-07-17T19:55:59.619Z,1.77
2018-07-17T19:58:29.740Z,1.73
2018-07-17T20:00:59.169Z,1.93
2018-07-17T20:03:29.151Z,1.73
2018-07-17T20:05:59.512Z,1.70
2018-07-17T20:08:29.799Z,1.60
2018-07-17T20:10:59.509Z,1.70
2018-07-17T20:13:29.234Z,1.93
2018-07-17T20:15:58.667Z,1.70
2018-07-17T20:18:28.538Z,1.80
2018-07-17T20:20:57.964Z,1.90
2018-07-17T20:23:27.731Z,2.20
2018-07-17T20:25:57.719Z,1.70
2018-07-17T20:28:27.672Z,1.87
2018-07-17T20:30:57.630Z,1.80
2018-07-17T20:33:27.405Z,2.33
2018-07-17T20:35:57.051Z,2.50
2018-07-17T20:38:26.823Z,2.10
2018-07-17T20:40:56.303Z,1.87
2018-07-17T20:43:26.436Z,2.30
2018-07-17T20:45:56.451Z,2.20
2018-07-17T20:48:26.143Z,2.10
2018-07-17T20:50:56.383Z,1.63
2018-07-17T20:53:26.094Z,2.00
2018-07-17T20:55:56.071Z,1.90
2018-07-17T20:58:26.093Z,1.80
2018-07-17T21:00:55.521Z,2.10
2018-07-17T21:03:25.535Z,1.87
2018-07-17T21:05:55.450Z,1.90
2018-07-17T21:08:25.236Z,2.10
2018-07-17T21:10:54.995Z,2.00
2018-07-17T21:13:24.695Z,2.30
2018-07-17T21:15:54.364Z,2.23
2018-07-17T21:18:23.864Z,2.10
2018-07-17T21:20:53.535Z,2.10
2018-07-17T21:23:23.227Z,2.00
2018-07-17T21:25:52.932Z,1.93
2018-07-17T21:28:22.674Z,2.13
2018-07-17T21:30:52.150Z,1.70
2018-07-17T21:33:21.911Z,1.80
2018-07-17T21:35:51.694Z,1.80
2018-07-17T21:38:21.814Z,1.90
2018-07-17T21:40:51.271Z,2.10
2018-07-17T21:43:20.740Z,2.37
2018-07-17T21:45:50.755Z,2.10
2018-07-17T21:48:20.707Z,2.13
2018-07-17T21:50:50.133Z,2.00
2018-07-17T21:53:19.609Z,2.13
2018-07-17T21:55:49.926Z,2.30
2018-07-17T21:58:19.368Z,1.97
2018-07-17T22:00:49.498Z,2.10
2018-07-17T22:03:19.437Z,2.13
2018-07-17T22:05:48.909Z,1.80
2018-07-17T22:08:18.336Z,2.13
2018-07-17T22:10:48.079Z,2.20
2018-07-17T22:13:17.705Z,2.53
2018-07-17T22:15:47.711Z,1.93
2018-07-17T22:18:17.492Z,2.00
2018-07-17T22:20:47.204Z,2.10
2018-07-17T22:23:16.918Z,2.53
2018-07-17T22:25:46.403Z,2.47
2018-07-17T22:28:15.829Z,2.10
2018-07-17T22:30:45.286Z,2.17
2018-07-17T22:33:14.994Z,2.07
2018-07-17T22:35:44.766Z,2.27
2018-07-17T22:38:15.280Z,2.37
2018-07-17T22:40:45.365Z,2.30
2018-07-17T22:43:15.360Z,2.70
2018-07-17T22:45:44.532Z,2.17
2018-07-17T22:48:14.575Z,2.10
2018-07-17T22:50:43.972Z,1.97
2018-07-17T22:53:13.687Z,2.23
2018-07-17T22:55:42.855Z,1.90
2018-07-17T22:58:13.254Z,2.40
2018-07-17T23:00:42.975Z,2.00
2018-07-17T23:03:13.248Z,2.30
2018-07-17T23:05:42.710Z,2.37
2018-07-17T23:08:12.132Z,2.03
2018-07-17T23:10:41.796Z,2.13
2018-07-17T23:13:11.264Z,2.07
2018-07-17T23:15:41.215Z,2.07
2018-07-17T23:18:10.930Z,2.20
2018-07-17T23:20:41.012Z,2.60
2018-07-17T23:23:11.005Z,2.50
2018-07-17T23:25:40.398Z,2.23
2018-07-17T23:28:10.991Z,2.60
2018-07-17T23:30:40.776Z,2.20
2018-07-17T23:33:10.696Z,2.00
2018-07-17T23:35:40.636Z,2.10
2018-07-17T23:38:10.619Z,2.40
2018-07-17T23:40:40.399Z,2.00
2018-07-17T23:43:09.856Z,2.40
2018-07-17T23:45:40.147Z,2.30
2018-07-17T23:48:09.572Z,2.20
2018-07-17T23:50:39.023Z,2.57
2018-07-17T23:53:08.451Z,2.40
2018-07-17T23:55:38.196Z,2.20
2018-07-17T23:58:08.207Z,2.10
